Boulder City, Nevada Weather observations

Data are for observation ending at time listed.
 Day   Time    Ave.   Ave.  Ave.  Vector   Max.   Stn.    Total    Solar   Ave.  
  of    of     Air    Rel.  Wind   Wind    Wind   Baro.  Precip.   Rad.    Soil  
Year   Day     Temp.  Hum.  Speed  Dir.    Gust   Pres.                    Temp. 
2014   (PST)    F      %     mph   deg.    mph     mb.     in.     W/m2     F   
------------------------------------------------------------------------------
 244    2:50   81.5    15    3.1   231      5.8   925.9    0.00       0    91.3
 244    3:00   82.8    15    3.0   237      5.3   926.0    0.00       0    91.2
 244    3:10   82.4    16    3.1   246      6.9   926.1    0.00       0    91.1
 244    3:20   83.8    16    4.1   239      7.0   926.1    0.00       0    91.0
 244    3:30   84.4    17    4.2   224      6.9   926.3    0.00       0    91.0
 244    3:40   84.1    17    4.6   220      7.9   926.4    0.00       0    90.8
 244    3:50   83.9    18    4.8   198      7.6   926.5    0.00       0    90.8
 244    4:00   83.0    18    3.5   230      7.3   926.6    0.00       0    90.7
 244    4:10   81.6    19    3.4   231      5.5   926.7    0.00       0    90.6
 244    4:20   81.9    19    5.4   233      7.8   926.7    0.00       0    90.5
 244    4:30   82.9    18    4.8   237      6.9   926.8    0.00       0    90.4
 244    4:40   82.5    18    4.1   232      5.8   926.8    0.00       0    90.3
 244    4:50   82.4    18    4.2   232      7.2   927.0    0.00       0    90.2
 244    5:00   82.8    17    4.0   238      6.4   927.0    0.00       0    90.2
 244    5:10   82.4    18    3.7   240      6.0   927.1    0.00       0    90.1
 244    5:20   82.7    18    3.9   240      6.5   927.3    0.00       6    90.0
 244    5:30   81.7    19    2.6   206      3.8   927.4    0.00      15    89.9
 244    5:40   80.4    20    3.2   205      4.7   927.5    0.00      46    89.8
 244    5:50   81.0    20    2.5   199      4.2   927.5    0.00      80    89.8
 244    6:00   83.2    18    4.2   228      6.4   927.6    0.00     111    89.7
 244    6:10   85.2    16    3.2   207      5.3   927.7    0.00     142    89.6
 244    6:20   86.2    16    3.5   224      5.8   927.9    0.00     174    89.6
 244    6:30   87.1    16    3.4   220      5.6   928.1    0.00     208    89.5
 244    6:40   87.4    15    3.6   219      6.1   928.4    0.00     242    89.4
 244    6:50   88.5    15    3.3   201      5.8   928.6    0.00     276    89.3
 244    7:00   88.6    15    4.3   213      7.3   928.7    0.00     311    89.2
 244    7:10   88.9    15    4.1   208      7.6   928.8    0.00     346    89.2
 244    7:20   89.0    15    4.3   214      7.7   929.0    0.00     380    89.2
 244    7:30   89.5    15    4.9   222      9.2   929.1    0.00     412    89.2
 244    7:40   90.1    15    3.3   206      6.4   929.3    0.00     444    89.1
 244    7:50   91.0    15    2.9   197      6.0   929.3    0.00     476    89.1
 244    8:00   93.0    15    2.1   153      4.9   929.5    0.00     507    89.1
 244    8:10   93.2    15    2.3   171      5.1   929.6    0.00     538    89.2
 244    8:20   92.9    16    2.7   184      5.4   929.7    0.00     567    89.2
 244    8:30   93.6    15    1.6   132      3.9   929.7    0.00     596    89.3
 244    8:40   94.6    15    3.2   148      6.7   929.8    0.00     623    89.4
 244    8:50   94.4    16    4.0   155      8.1   929.8    0.00     648    89.5
 244    9:00   95.3    15    3.5   153      9.1   929.9    0.00     669    89.7
 244    9:10   96.0    15    2.9    97      6.1   930.0    0.00     694    89.9
 244    9:20   96.4    15    3.7   145      8.6   930.0    0.00     716    90.1
 244    9:30   96.3    15    2.1    78      8.3   930.0    0.00     653    90.3
 244    9:40   97.1    15    2.7   101      7.2   930.1    0.00     398    90.6
 244    9:50   97.3    15    2.8   110      8.7   930.1    0.00      55    90.8
 244   10:00   97.6    15    3.1   124      7.2   930.1    0.00     274    91.1
 244   10:10   96.7    15    3.4    69      8.9   930.1    0.00     751    91.4
 244   10:20   97.8    15    2.5   136      8.6   930.0    0.00     714    91.6
 244   10:30   97.8    14    4.1   153      9.9   930.0    0.00     652    91.9
 244   10:40   98.1    15    3.4   114      7.2   929.9    0.00     771    92.3
 244   10:50   99.0    14    4.1    94     13.5   929.8    0.00     817    92.6
 244   11:00   99.0    14    3.1   154      6.7   929.8    0.00     818    93.0
 244   11:10   99.2    14    4.7   149     11.0   929.8    0.00     861    93.3
 244   11:20   99.4    14    2.5   188      8.3   929.6    0.00     861    93.7
 244   11:30  100.3    14    3.1   108      8.6   929.4    0.00     863    94.0
 244   11:40  101.0    13    5.0   126     12.3   929.3    0.00     872    94.4
 244   11:50  101.7    13    5.2   164     13.4   929.1    0.00     870    94.7
 244   12:00  101.0    13    5.0   120     11.2   929.1    0.00     866    95.1
 244   12:10  101.6    13    4.9   124     11.2   929.0    0.00     863    95.5
 244   12:20  101.9    13    6.1   129     11.8   928.9    0.00     857    95.9
 244   12:30  101.9    13    5.0   122     14.4   928.8    0.00     850    96.2
 244   12:40  102.0    12    6.1   126     12.9   928.8    0.00     844    96.5
 244   12:50  101.8    12    5.9   121     13.4   928.7    0.00     833    96.8
 244   13:00  102.0    12    5.6   152     16.6   928.6    0.00     823    97.0
 244   13:10  102.8    12    4.0   111     10.2   928.5    0.00     810    97.2
 244   13:20  102.7    11    5.6   148     12.0   928.5    0.00     796    97.4
 244   13:30  103.1    11    4.5   169     14.5   928.4    0.00     779    97.6
 244   13:40  103.2    11    4.8   110     13.4   928.3    0.00     756    97.8
 244   13:50  102.7    11    4.6   153     12.9   928.2    0.00     741    97.9
 244   14:00  103.2    11    4.2   147      9.6   928.2    0.00     720    98.0
 244   14:10  103.0    11    5.4   137     14.2   928.1    0.00     698    98.0
 244   14:20  104.1    11    4.0    99     11.0   928.0    0.00     672    98.1
 244   14:30  102.7    11    5.5   162     12.6   928.0    0.00     649    98.2
 244   14:40  102.6    11    4.1   132     10.4   927.9    0.00     622    98.3
 244   14:50  103.1    11    6.1   123     14.3   927.9    0.00     594    98.3
 244   15:00  102.9    11    6.1   119     15.1   927.8    0.00     565    98.3
 244   15:10  102.8    11    4.9   128     14.5   927.7    0.00     533    98.3
 244   15:20  102.7    11    4.8   133     11.2   927.7    0.00     506    98.3
 244   15:30  102.7    11    5.1   125     13.7   927.6    0.00     476    98.3
 244   15:40  101.6    11    6.2   144     16.1   927.6    0.00     446    98.2
 244   15:50  102.1    11    4.4   124     12.0   927.5    0.00     395    98.2
 244   16:00  101.6    11    5.2   106     10.9   927.4    0.00     341    98.0
 244   16:10  102.1    11    4.6    93     10.2   927.3    0.00     332    98.0
 244   16:20  101.6    11    5.4   102     14.5   927.2    0.00     313    97.9
 244   16:30  101.9    11    4.7    96     11.1   927.1    0.00     283    97.9
 244   16:40  101.3    11    4.0   113     10.2   927.1    0.00     248    97.8
 244   16:50  101.3    11    4.1   118     12.1   927.1    0.00     214    97.7
 244   17:00  100.5    11    5.4   112     12.7   927.0    0.00     181    97.6
 244   17:10   99.9    11    3.8   155     10.8   926.9    0.00     149    97.6
 244   17:20   99.4    12    5.0   151     12.6   926.8    0.00     119    97.4
 244   17:30   98.2    12    5.5   152     16.1   926.7    0.00      83    97.4
 244   17:40   97.5    12    4.9   160     12.0   926.6    0.00      36    97.3
 244   17:50   97.1    13    3.6   144      9.8   926.6    0.00      14    97.2
 244   18:00   96.5    13    3.3   168      9.2   926.7    0.00      10    97.1
 244   18:10   96.0    13    4.6   164     10.5   926.7    0.00       5    97.0
 244   18:20   95.7    13    4.2   169      9.6   926.7    0.00       3    96.9
 244   18:30   95.3    13    4.6   184     15.6   926.7    0.00       0    96.8
 244   18:40   94.8    13    4.3   180     10.8   926.7    0.00       0    96.7
 244   18:50   94.5    13    4.9   188     10.6   926.8    0.00       0    96.6
 244   19:00   94.4    13    5.0   181     12.6   926.9    0.00       0    96.5
 244   19:10   93.8    14    4.6   198      8.6   927.0    0.00       0    96.4
 244   19:20   93.5    14    4.7   192      8.9   927.2    0.00       0    96.3
 244   19:30   93.8    13    6.3   186     11.0   927.3    0.00       0    96.2
 244   19:40   93.1    14    5.0   211      9.1   927.3    0.00       0    96.2
 244   19:50   92.5    14    4.5   208      9.6   927.4    0.00       0    96.1
 244   20:00   92.3    14    3.8   187      6.7   927.4    0.00       0    96.0
 244   20:10   91.9    14    3.7   202      6.5   927.5    0.00       0    95.8
 244   20:20   90.9    14    3.3   228      4.8   927.5    0.00       0    95.7
 244   20:30   90.4    14    3.5   224      5.0   927.6    0.00       0    95.6
 244   20:40   89.9    15    2.8   227      4.2   927.6    0.00       0    95.5
 244   20:50   89.2    15    3.9   230      5.6   927.5    0.00       0    95.4
 244   21:00   89.2    14    4.9   228      6.7   927.5    0.00       0    95.3
 244   21:10   88.9    14    5.9   228      8.2   927.4    0.00       0    95.2
 244   21:20   88.7    14    6.6   229      8.6   927.4    0.00       0    95.1
 244   21:30   88.5    14    6.6   228      9.9   927.5    0.00       0    95.0
 244   21:40   88.1    14    5.8   224      9.1   927.5    0.00       0    94.9
 244   21:50   87.8    14    6.0   226      8.8   927.6    0.00       0    94.8
 244   22:00   87.7    14    6.1   229      8.8   927.6    0.00       0    94.7
 244   22:10   87.9    13    6.4   236      9.9   927.5    0.00       0    94.6
 244   22:20   87.8    13    6.0   236     10.6   927.5    0.00       0    94.4
 244   22:30   87.6    13    6.2   238      9.2   927.4    0.00       0    94.3
 244   22:40   87.5    13    6.0   241      9.0   927.4    0.00       0    94.2
 244   22:50   87.9    13    5.8   238      9.4   927.4    0.00       0    94.1
 244   23:00   88.3    13    6.0   241      8.9   927.4    0.00       0    94.1
 244   23:10   88.1    13    6.2   242      9.9   927.4    0.00       0    94.0
 244   23:20   87.5    13    5.6   229      9.1   927.4    0.00       0    93.9
 244   23:30   86.7    13    4.2   218      6.1   927.4    0.00       0    93.8
 244   23:40   86.5    13    4.1   214      6.4   927.4    0.00       0    93.7
 244   23:50   86.6    13    4.8   222      6.9   927.4    0.00       0    93.6
 245    0:00   86.3    13    3.8   195      5.6   927.4    0.00       0    93.5
 245    0:10   85.2    14    3.7   193      5.3   927.3    0.00       0    93.4
 245    0:20   84.5    14    3.6   197      5.0   927.3    0.00       0    93.3
 245    0:30   84.3    14    3.0   213      3.9   927.2    0.00       0    93.2
 245    0:40   85.0    14    4.2   238      5.9   927.1    0.00       0    93.0
 245    0:50   85.5    13    3.2   223      5.3   927.1    0.00       0    93.0
 245    1:00   84.2    14    2.5   214      4.3   927.1    0.00       0    92.9
 245    1:10   83.9    14    2.8   198      4.3   927.0    0.00       0    92.8
 245    1:20   83.1    15    2.6   200      4.2   927.0    0.00       0    92.7
 245    1:30   82.8    15    2.7   205      3.6   927.0    0.00       0    92.6
 245    1:40   82.2    16    2.4   206      3.5   927.0    0.00       0    92.5
 245    1:50   82.1    16    2.7   216      4.0   926.9    0.00       0    92.4
 245    2:00   81.6    16    3.0   217      3.7   927.0    0.00       0    92.3
 245    2:10   81.6    16    2.6   224      4.0   927.0    0.00       0    92.2
 245    2:20   81.5    16    2.5   208      3.4   927.0    0.00       0    92.1
 245    2:30   80.8    17    2.4   213      3.5   927.0    0.00       0    92.0
 245    2:40   79.7    18    2.8   215      4.0   927.0    0.00       0    91.9

Return to Boulder City, Nevada graphs page.


Western Regional Climate Center,wrcc@dri.edu